<?xml version="1.0" encoding="UTF-8" standalone="no" ?>
<gpx xmlns="http://www.topografix.com/GPX/1/1" xmlns:xsi="http://www.w3.org/2001/XMLSchema-instance" xsi:schemaLocation="http://www.topografix.com/GPX/1/1 http://www.topografix.com/GPX/1/1/gpx.xsd" version="1.1" creator="VisuGPX - https://www.visugpx.com">
  <metadata>
    <name>varianteInframundo</name>
    <desc><![CDATA[
La variante del Viaje al Inframundo V 2.0 incorpora un sendero nuevo por la valle de Sieste para acercarnos a Morcat, un hito en esta ruta.
El regreso pasa ahora por el mítico Sarrastaño y para remate hace un descenso nuevo en 2013, el fabuloso "Partara Express". Aínsa cae derrotada a nuestros pies con esta cruzada.

Mucho sendero, mucha distancia, terreno bueno para el alma y malo para el cuerpo. Experimenta este viaje iniciático e intenta sobrevivir.

]]></desc>
  </metadata>
  <trk>
    <name><![CDATA[variante ruta 12 a 500ptos  V2 Inframundo 2013]]></name>
    <desc><![CDATA[La variante del Viaje al Inframundo V 2.0 incorpora un sendero nuevo por la valle de Sieste para acercarnos a Morcat, un hito en esta ruta.
El regreso pasa ahora por el mítico Sarrastaño y para remate hace un descenso nuevo en 2013, el fabuloso "Partara Express". Aínsa cae derrotada a nuestros pies con esta cruzada.

Mucho sendero, mucha distancia, terreno bueno para el alma y malo para el cuerpo. Experimenta este viaje iniciático e intenta sobrevivir.

]]></desc>
    <trkseg>
      <trkpt lat="42.41245" lon="0.14047">
        <ele>530.8</ele>
        <time>2011-05-01T08:00:00Z</time>
      </trkpt>
      <trkpt lat="42.4127" lon="0.1394">
        <ele>530.8</ele>
        <time>2011-05-01T08:01:02Z</time>
      </trkpt>
      <trkpt lat="42.41286" lon="0.13788">
        <ele>530.3</ele>
        <time>2011-05-01T08:02:07Z</time>
      </trkpt>
      <trkpt lat="42.41463" lon="0.13328">
        <ele>533.2</ele>
        <time>2011-05-01T08:05:49Z</time>
      </trkpt>
      <trkpt lat="42.41466" lon="0.13252">
        <ele>534.1</ele>
        <time>2011-05-01T08:06:21Z</time>
      </trkpt>
      <trkpt lat="42.41377" lon="0.12742">
        <ele>539.9</ele>
        <time>2011-05-01T08:10:02Z</time>
      </trkpt>
      <trkpt lat="42.41365" lon="0.12696">
        <ele>541.4</ele>
        <time>2011-05-01T08:10:25Z</time>
      </trkpt>
      <trkpt lat="42.41417" lon="0.12645">
        <ele>538</ele>
        <time>2011-05-01T08:11:12Z</time>
      </trkpt>
      <trkpt lat="42.41444" lon="0.12761">
        <ele>536.1</ele>
        <time>2011-05-01T08:12:04Z</time>
      </trkpt>
      <trkpt lat="42.41519" lon="0.12785">
        <ele>533.2</ele>
        <time>2011-05-01T08:12:49Z</time>
      </trkpt>
      <trkpt lat="42.41574" lon="0.1284">
        <ele>532.7</ele>
        <time>2011-05-01T08:13:28Z</time>
      </trkpt>
      <trkpt lat="42.41696" lon="0.12886">
        <ele>532.2</ele>
        <time>2011-05-01T08:14:41Z</time>
      </trkpt>
      <trkpt lat="42.41732" lon="0.12796">
        <ele>533.7</ele>
        <time>2011-05-01T08:15:24Z</time>
      </trkpt>
      <trkpt lat="42.41896" lon="0.12593">
        <ele>536.1</ele>
        <time>2011-05-01T08:17:33Z</time>
      </trkpt>
      <trkpt lat="42.41922" lon="0.12588">
        <ele>538</ele>
        <time>2011-05-01T08:17:48Z</time>
      </trkpt>
      <trkpt lat="42.4203" lon="0.12396">
        <ele>539.4</ele>
        <time>2011-05-01T08:19:30Z</time>
      </trkpt>
      <trkpt lat="42.42209" lon="0.12089">
        <ele>539.9</ele>
        <time>2011-05-01T08:22:15Z</time>
      </trkpt>
      <trkpt lat="42.4236" lon="0.11836">
        <ele>542.8</ele>
        <time>2011-05-01T08:24:32Z</time>
      </trkpt>
      <trkpt lat="42.42506" lon="0.11707">
        <ele>546.2</ele>
        <time>2011-05-01T08:26:12Z</time>
      </trkpt>
      <trkpt lat="42.42766" lon="0.11415">
        <ele>549.1</ele>
        <time>2011-05-01T08:29:25Z</time>
      </trkpt>
      <trkpt lat="42.42882" lon="0.11098">
        <ele>550.5</ele>
        <time>2011-05-01T08:31:57Z</time>
      </trkpt>
      <trkpt lat="42.42879" lon="0.11054">
        <ele>551.5</ele>
        <time>2011-05-01T08:32:16Z</time>
      </trkpt>
      <trkpt lat="42.42839" lon="0.10942">
        <ele>552.4</ele>
        <time>2011-05-01T08:33:08Z</time>
      </trkpt>
      <trkpt lat="42.42833" lon="0.10594">
        <ele>554.8</ele>
        <time>2011-05-01T08:35:35Z</time>
      </trkpt>
      <trkpt lat="42.42875" lon="0.10251">
        <ele>557.2</ele>
        <time>2011-05-01T08:38:02Z</time>
      </trkpt>
      <trkpt lat="42.42857" lon="0.10219">
        <ele>558.2</ele>
        <time>2011-05-01T08:38:20Z</time>
      </trkpt>
      <trkpt lat="42.42815" lon="0.1009">
        <ele>559.1</ele>
        <time>2011-05-01T08:39:20Z</time>
      </trkpt>
      <trkpt lat="42.42812" lon="0.09778">
        <ele>560.6</ele>
        <time>2011-05-01T08:41:32Z</time>
      </trkpt>
      <trkpt lat="42.42819" lon="0.09703">
        <ele>563</ele>
        <time>2011-05-01T08:42:05Z</time>
      </trkpt>
      <trkpt lat="42.42787" lon="0.09605">
        <ele>565.4</ele>
        <time>2011-05-01T08:42:51Z</time>
      </trkpt>
      <trkpt lat="42.42768" lon="0.09337">
        <ele>570.2</ele>
        <time>2011-05-01T08:44:46Z</time>
      </trkpt>
      <trkpt lat="42.42787" lon="0.09278">
        <ele>569.2</ele>
        <time>2011-05-01T08:45:13Z</time>
      </trkpt>
      <trkpt lat="42.42986" lon="0.0902">
        <ele>565.4</ele>
        <time>2011-05-01T08:47:51Z</time>
      </trkpt>
      <trkpt lat="42.43116" lon="0.08788">
        <ele>569.2</ele>
        <time>2011-05-01T08:49:55Z</time>
      </trkpt>
      <trkpt lat="42.43181" lon="0.08741">
        <ele>570.7</ele>
        <time>2011-05-01T08:50:37Z</time>
      </trkpt>
      <trkpt lat="42.4333" lon="0.0847">
        <ele>570.7</ele>
        <time>2011-05-01T08:53:00Z</time>
      </trkpt>
      <trkpt lat="42.43269" lon="0.08405">
        <ele>572.1</ele>
        <time>2011-05-01T08:53:44Z</time>
      </trkpt>
      <trkpt lat="42.43298" lon="0.08333">
        <ele>574</ele>
        <time>2011-05-01T08:54:22Z</time>
      </trkpt>
      <trkpt lat="42.43538" lon="0.07864">
        <ele>577.9</ele>
        <time>2011-05-01T08:58:23Z</time>
      </trkpt>
      <trkpt lat="42.435" lon="0.07805">
        <ele>577.9</ele>
        <time>2011-05-01T08:58:55Z</time>
      </trkpt>
      <trkpt lat="42.43508" lon="0.07713">
        <ele>578.9</ele>
        <time>2011-05-01T08:59:36Z</time>
      </trkpt>
      <trkpt lat="42.43562" lon="0.07635">
        <ele>578.9</ele>
        <time>2011-05-01T09:00:21Z</time>
      </trkpt>
      <trkpt lat="42.43548" lon="0.07556">
        <ele>581.3</ele>
        <time>2011-05-01T09:00:59Z</time>
      </trkpt>
      <trkpt lat="42.43442" lon="0.07466">
        <ele>596.2</ele>
        <time>2011-05-01T09:02:11Z</time>
      </trkpt>
      <trkpt lat="42.43343" lon="0.07467">
        <ele>605.8</ele>
        <time>2011-05-01T09:03:19Z</time>
      </trkpt>
      <trkpt lat="42.43455" lon="0.074">
        <ele>613.9</ele>
        <time>2011-05-01T09:04:29Z</time>
      </trkpt>
      <trkpt lat="42.4337" lon="0.07426">
        <ele>620.2</ele>
        <time>2011-05-01T09:05:20Z</time>
      </trkpt>
      <trkpt lat="42.43338" lon="0.0742">
        <ele>622.6</ele>
        <time>2011-05-01T09:05:39Z</time>
      </trkpt>
      <trkpt lat="42.43281" lon="0.07237">
        <ele>633.6</ele>
        <time>2011-05-01T09:07:03Z</time>
      </trkpt>
      <trkpt lat="42.43258" lon="0.07225">
        <ele>635.6</ele>
        <time>2011-05-01T09:07:17Z</time>
      </trkpt>
      <trkpt lat="42.43087" lon="0.07234">
        <ele>640.4</ele>
        <time>2011-05-01T09:08:55Z</time>
      </trkpt>
      <trkpt lat="42.43054" lon="0.07219">
        <ele>644.7</ele>
        <time>2011-05-01T09:09:15Z</time>
      </trkpt>
      <trkpt lat="42.42948" lon="0.0728">
        <ele>651.9</ele>
        <time>2011-05-01T09:10:21Z</time>
      </trkpt>
      <trkpt lat="42.42873" lon="0.07234">
        <ele>661.5</ele>
        <time>2011-05-01T09:11:09Z</time>
      </trkpt>
      <trkpt lat="42.42869" lon="0.0709">
        <ele>673.1</ele>
        <time>2011-05-01T09:12:15Z</time>
      </trkpt>
      <trkpt lat="42.42942" lon="0.07009">
        <ele>678.8</ele>
        <time>2011-05-01T09:13:09Z</time>
      </trkpt>
      <trkpt lat="42.42997" lon="0.06893">
        <ele>684.6</ele>
        <time>2011-05-01T09:14:08Z</time>
      </trkpt>
      <trkpt lat="42.43034" lon="0.06809">
        <ele>700.9</ele>
        <time>2012-12-02T13:28:31Z</time>
      </trkpt>
      <trkpt lat="42.43035" lon="0.06918">
        <ele>707.2</ele>
        <time>2012-12-02T13:29:13Z</time>
      </trkpt>
      <trkpt lat="42.43044" lon="0.0691">
        <ele>709.6</ele>
        <time>2012-12-02T13:29:24Z</time>
      </trkpt>
      <trkpt lat="42.43067" lon="0.06825">
        <ele>720.7</ele>
        <time>2012-12-02T13:30:18Z</time>
      </trkpt>
      <trkpt lat="42.43095" lon="0.06831">
        <ele>726.9</ele>
        <time>2012-12-02T13:30:44Z</time>
      </trkpt>
      <trkpt lat="42.43109" lon="0.06814">
        <ele>729.3</ele>
        <time>2012-12-02T13:30:59Z</time>
      </trkpt>
      <trkpt lat="42.43101" lon="0.06795">
        <ele>728.8</ele>
        <time>2012-12-02T13:32:29Z</time>
      </trkpt>
      <trkpt lat="42.43111" lon="0.0676">
        <ele>732.7</ele>
        <time>2012-12-02T13:32:58Z</time>
      </trkpt>
      <trkpt lat="42.43104" lon="0.0667">
        <ele>742.8</ele>
        <time>2012-12-02T13:34:15Z</time>
      </trkpt>
      <trkpt lat="42.43079" lon="0.06602">
        <ele>744.7</ele>
        <time>2012-12-02T13:35:16Z</time>
      </trkpt>
      <trkpt lat="42.4311" lon="0.06457">
        <ele>742.8</ele>
        <time>2012-12-02T13:36:06Z</time>
      </trkpt>
      <trkpt lat="42.43189" lon="0.06353">
        <ele>738</ele>
        <time>2012-12-02T13:36:38Z</time>
      </trkpt>
      <trkpt lat="42.43226" lon="0.06312">
        <ele>737</ele>
        <time>2012-12-02T13:37:21Z</time>
      </trkpt>
      <trkpt lat="42.43228" lon="0.06273">
        <ele>727.9</ele>
        <time>2013-02-16T16:30:14Z</time>
      </trkpt>
      <trkpt lat="42.43219" lon="0.06257">
        <ele>725</ele>
        <time>2013-02-16T16:31:14Z</time>
      </trkpt>
      <trkpt lat="42.43225" lon="0.06237">
        <ele>720.7</ele>
        <time>2013-02-16T16:34:06Z</time>
      </trkpt>
      <trkpt lat="42.43259" lon="0.06176">
        <ele>718.7</ele>
        <time>2013-02-16T16:35:02Z</time>
      </trkpt>
      <trkpt lat="42.43337" lon="0.06075">
        <ele>707.2</ele>
        <time>2013-02-16T16:37:36Z</time>
      </trkpt>
      <trkpt lat="42.43317" lon="0.05947">
        <ele>711</ele>
        <time>2013-02-16T16:39:15Z</time>
      </trkpt>
      <trkpt lat="42.43313" lon="0.0589">
        <ele>716.8</ele>
        <time>2013-02-16T16:41:13Z</time>
      </trkpt>
      <trkpt lat="42.43291" lon="0.05813">
        <ele>722.1</ele>
        <time>2013-02-16T16:44:20Z</time>
      </trkpt>
      <trkpt lat="42.43231" lon="0.05736">
        <ele>732.7</ele>
        <time>2013-02-16T16:44:49Z</time>
      </trkpt>
      <trkpt lat="42.43178" lon="0.0568">
        <ele>738.4</ele>
        <time>2013-02-16T16:46:07Z</time>
      </trkpt>
      <trkpt lat="42.43084" lon="0.05631">
        <ele>736</ele>
        <time>2013-02-16T16:47:08Z</time>
      </trkpt>
      <trkpt lat="42.43014" lon="0.05567">
        <ele>730.3</ele>
        <time>2013-02-16T16:48:21Z</time>
      </trkpt>
      <trkpt lat="42.42951" lon="0.05579">
        <ele>736.5</ele>
        <time>2013-02-16T16:50:02Z</time>
      </trkpt>
      <trkpt lat="42.42891" lon="0.05556">
        <ele>732.7</ele>
        <time>2013-02-16T16:50:48Z</time>
      </trkpt>
      <trkpt lat="42.42833" lon="0.05542">
        <ele>738.9</ele>
        <time>2013-02-16T16:53:10Z</time>
      </trkpt>
      <trkpt lat="42.42773" lon="0.05456">
        <ele>738</ele>
        <time>2013-02-16T16:54:00Z</time>
      </trkpt>
      <trkpt lat="42.42729" lon="0.0538">
        <ele>736.5</ele>
        <time>2013-02-16T16:54:56Z</time>
      </trkpt>
      <trkpt lat="42.42635" lon="0.05421">
        <ele>742.8</ele>
        <time>2013-02-16T16:55:44Z</time>
      </trkpt>
      <trkpt lat="42.42543" lon="0.05398">
        <ele>734.1</ele>
        <time>2013-02-16T16:57:32Z</time>
      </trkpt>
      <trkpt lat="42.42447" lon="0.05427">
        <ele>716.6</ele>
        <time>2013-04-22T19:00:43Z</time>
      </trkpt>
      <trkpt lat="42.42406" lon="0.0532">
        <ele>723.3</ele>
        <time>2013-04-22T19:01:31Z</time>
      </trkpt>
      <trkpt lat="42.42347" lon="0.05277">
        <ele>721.6</ele>
        <time>2013-04-22T19:02:15Z</time>
      </trkpt>
      <trkpt lat="42.42264" lon="0.05274">
        <ele>720.1</ele>
        <time>2013-04-22T19:03:16Z</time>
      </trkpt>
      <trkpt lat="42.42165" lon="0.05233">
        <ele>730.3</ele>
        <time>2013-04-22T19:04:03Z</time>
      </trkpt>
      <trkpt lat="42.42107" lon="0.05179">
        <ele>731.8</ele>
        <time>2013-04-22T19:04:35Z</time>
      </trkpt>
      <trkpt lat="42.42023" lon="0.05097">
        <ele>734</ele>
        <time>2013-04-22T19:05:31Z</time>
      </trkpt>
      <trkpt lat="42.41966" lon="0.05039">
        <ele>731.6</ele>
        <time>2013-04-22T19:06:12Z</time>
      </trkpt>
      <trkpt lat="42.41871" lon="0.05032">
        <ele>744</ele>
        <time>2013-04-22T19:07:08Z</time>
      </trkpt>
      <trkpt lat="42.41799" lon="0.04955">
        <ele>746.4</ele>
        <time>2013-04-22T19:07:58Z</time>
      </trkpt>
      <trkpt lat="42.41725" lon="0.04957">
        <ele>743.4</ele>
        <time>2013-04-22T19:08:41Z</time>
      </trkpt>
      <trkpt lat="42.41626" lon="0.04944">
        <ele>735.9</ele>
        <time>2013-04-22T19:09:53Z</time>
      </trkpt>
      <trkpt lat="42.41562" lon="0.0501">
        <ele>720.3</ele>
        <time>2013-04-22T19:10:34Z</time>
      </trkpt>
      <trkpt lat="42.41511" lon="0.0508">
        <ele>699.5</ele>
        <time>2013-04-22T19:11:15Z</time>
      </trkpt>
      <trkpt lat="42.41503" lon="0.05233">
        <ele>674.3</ele>
        <time>2013-04-22T19:12:19Z</time>
      </trkpt>
      <trkpt lat="42.41532" lon="0.05266">
        <ele>663.9</ele>
        <time>2011-05-01T09:34:23Z</time>
      </trkpt>
      <trkpt lat="42.41517" lon="0.05343">
        <ele>658.2</ele>
        <time>2011-05-01T09:35:01Z</time>
      </trkpt>
      <trkpt lat="42.41356" lon="0.05246">
        <ele>663</ele>
        <time>2011-05-01T09:36:43Z</time>
      </trkpt>
      <trkpt lat="42.41287" lon="0.05085">
        <ele>664.4</ele>
        <time>2011-05-01T09:38:02Z</time>
      </trkpt>
      <trkpt lat="42.41242" lon="0.05046">
        <ele>667.3</ele>
        <time>2011-05-01T09:38:33Z</time>
      </trkpt>
      <trkpt lat="42.41199" lon="0.05008">
        <ele>671.1</ele>
        <time>2011-05-01T09:39:05Z</time>
      </trkpt>
      <trkpt lat="42.41065" lon="0.05006">
        <ele>673.1</ele>
        <time>2011-05-01T09:40:21Z</time>
      </trkpt>
      <trkpt lat="42.40976" lon="0.0495">
        <ele>677.9</ele>
        <time>2011-05-01T09:41:22Z</time>
      </trkpt>
      <trkpt lat="42.40896" lon="0.04982">
        <ele>687.5</ele>
        <time>2011-05-01T09:42:10Z</time>
      </trkpt>
      <trkpt lat="42.40811" lon="0.04932">
        <ele>697.1</ele>
        <time>2011-05-01T09:43:08Z</time>
      </trkpt>
      <trkpt lat="42.40885" lon="0.04945">
        <ele>703.8</ele>
        <time>2011-05-01T09:43:51Z</time>
      </trkpt>
      <trkpt lat="42.4083" lon="0.04885">
        <ele>715.4</ele>
        <time>2011-05-01T09:44:56Z</time>
      </trkpt>
      <trkpt lat="42.4084" lon="0.04834">
        <ele>728.8</ele>
        <time>2011-05-01T09:46:06Z</time>
      </trkpt>
      <trkpt lat="42.4078" lon="0.04779">
        <ele>734.1</ele>
        <time>2011-05-01T09:46:48Z</time>
      </trkpt>
      <trkpt lat="42.40648" lon="0.04754">
        <ele>747.1</ele>
        <time>2011-05-01T09:48:05Z</time>
      </trkpt>
      <trkpt lat="42.40624" lon="0.04734">
        <ele>749.5</ele>
        <time>2011-05-01T09:48:21Z</time>
      </trkpt>
      <trkpt lat="42.40526" lon="0.04713">
        <ele>759.1</ele>
        <time>2011-05-01T09:49:18Z</time>
      </trkpt>
      <trkpt lat="42.4051" lon="0.04647">
        <ele>766.3</ele>
        <time>2011-05-01T09:49:52Z</time>
      </trkpt>
      <trkpt lat="42.40535" lon="0.04661">
        <ele>768.7</ele>
        <time>2011-05-01T09:50:08Z</time>
      </trkpt>
      <trkpt lat="42.40633" lon="0.04619">
        <ele>776.4</ele>
        <time>2011-05-01T09:51:07Z</time>
      </trkpt>
      <trkpt lat="42.40672" lon="0.04595">
        <ele>787</ele>
        <time>2011-05-01T09:51:52Z</time>
      </trkpt>
      <trkpt lat="42.40594" lon="0.04546">
        <ele>793.7</ele>
        <time>2011-05-01T09:52:42Z</time>
      </trkpt>
      <trkpt lat="42.40556" lon="0.04482">
        <ele>803.8</ele>
        <time>2011-05-01T09:53:16Z</time>
      </trkpt>
      <trkpt lat="42.4057" lon="0.04388">
        <ele>817.7</ele>
        <time>2011-05-01T09:54:11Z</time>
      </trkpt>
      <trkpt lat="42.40655" lon="0.04397">
        <ele>829.3</ele>
        <time>2011-05-01T09:55:03Z</time>
      </trkpt>
      <trkpt lat="42.4069" lon="0.04367">
        <ele>836.5</ele>
        <time>2011-05-01T09:55:31Z</time>
      </trkpt>
      <trkpt lat="42.40554" lon="0.04272">
        <ele>849.5</ele>
        <time>2011-05-01T09:57:00Z</time>
      </trkpt>
      <trkpt lat="42.40485" lon="0.04249">
        <ele>850.4</ele>
        <time>2011-05-01T09:57:41Z</time>
      </trkpt>
      <trkpt lat="42.40432" lon="0.04326">
        <ele>854.7</ele>
        <time>2011-05-01T09:58:31Z</time>
      </trkpt>
      <trkpt lat="42.4035" lon="0.04261">
        <ele>865.3</ele>
        <time>2011-05-01T09:59:30Z</time>
      </trkpt>
      <trkpt lat="42.40241" lon="0.0422">
        <ele>870.6</ele>
        <time>2011-05-01T10:00:35Z</time>
      </trkpt>
      <trkpt lat="42.40202" lon="0.04176">
        <ele>869.2</ele>
        <time>2011-05-01T10:01:07Z</time>
      </trkpt>
      <trkpt lat="42.40225" lon="0.04053">
        <ele>874.9</ele>
        <time>2011-05-01T10:02:01Z</time>
      </trkpt>
      <trkpt lat="42.40108" lon="0.03942">
        <ele>875.9</ele>
        <time>2011-05-01T10:03:23Z</time>
      </trkpt>
      <trkpt lat="42.40064" lon="0.03693">
        <ele>886</ele>
        <time>2011-05-01T10:05:12Z</time>
      </trkpt>
      <trkpt lat="42.39996" lon="0.03652">
        <ele>890.3</ele>
        <time>2011-05-01T10:05:55Z</time>
      </trkpt>
      <trkpt lat="42.39947" lon="0.03537">
        <ele>898.5</ele>
        <time>2011-05-01T10:06:52Z</time>
      </trkpt>
      <trkpt lat="42.39841" lon="0.03629">
        <ele>901.4</ele>
        <time>2011-05-01T10:08:05Z</time>
      </trkpt>
      <trkpt lat="42.39834" lon="0.03618">
        <ele>901.9</ele>
        <time>2011-05-01T10:08:12Z</time>
      </trkpt>
      <trkpt lat="42.3995" lon="0.03445">
        <ele>916.8</ele>
        <time>2011-05-01T10:09:52Z</time>
      </trkpt>
      <trkpt lat="42.39971" lon="0.03447">
        <ele>918.7</ele>
        <time>2011-05-01T10:10:04Z</time>
      </trkpt>
      <trkpt lat="42.40038" lon="0.03514">
        <ele>926.4</ele>
        <time>2011-05-01T10:11:01Z</time>
      </trkpt>
      <trkpt lat="42.39951" lon="0.03319">
        <ele>943.7</ele>
        <time>2011-05-01T10:12:39Z</time>
      </trkpt>
      <trkpt lat="42.39959" lon="0.0331">
        <ele>945.1</ele>
        <time>2011-05-01T10:12:46Z</time>
      </trkpt>
      <trkpt lat="42.40064" lon="0.0337">
        <ele>956.6</ele>
        <time>2011-05-01T10:13:52Z</time>
      </trkpt>
      <trkpt lat="42.40077" lon="0.03347">
        <ele>960.5</ele>
        <time>2011-05-01T10:14:10Z</time>
      </trkpt>
      <trkpt lat="42.40021" lon="0.03181">
        <ele>976.8</ele>
        <time>2011-05-01T10:15:28Z</time>
      </trkpt>
      <trkpt lat="42.40002" lon="0.03053">
        <ele>985</ele>
        <time>2011-05-01T10:16:23Z</time>
      </trkpt>
      <trkpt lat="42.40042" lon="0.02923">
        <ele>990.3</ele>
        <time>2011-05-01T10:17:23Z</time>
      </trkpt>
      <trkpt lat="42.40003" lon="0.02824">
        <ele>999.4</ele>
        <time>2011-05-01T10:18:15Z</time>
      </trkpt>
      <trkpt lat="42.39907" lon="0.02797">
        <ele>1006.2</ele>
        <time>2011-05-01T10:19:12Z</time>
      </trkpt>
      <trkpt lat="42.39871" lon="0.02741">
        <ele>1010</ele>
        <time>2011-05-01T10:19:43Z</time>
      </trkpt>
      <trkpt lat="42.39755" lon="0.02707">
        <ele>1025.4</ele>
        <time>2011-05-01T10:20:51Z</time>
      </trkpt>
      <trkpt lat="42.39784" lon="0.02671">
        <ele>1032.1</ele>
        <time>2011-05-01T10:21:37Z</time>
      </trkpt>
      <trkpt lat="42.39748" lon="0.02639">
        <ele>1045.6</ele>
        <time>2011-05-01T10:22:39Z</time>
      </trkpt>
      <trkpt lat="42.39833" lon="0.02601">
        <ele>1055.7</ele>
        <time>2011-05-01T10:23:34Z</time>
      </trkpt>
      <trkpt lat="42.39977" lon="0.02489">
        <ele>1074.9</ele>
        <time>2011-05-01T10:25:09Z</time>
      </trkpt>
      <trkpt lat="42.3996" lon="0.02447">
        <ele>1078.3</ele>
        <time>2011-05-01T10:25:32Z</time>
      </trkpt>
      <trkpt lat="42.39897" lon="0.02454">
        <ele>1083.1</ele>
        <time>2011-05-01T10:26:10Z</time>
      </trkpt>
      <trkpt lat="42.39822" lon="0.02418">
        <ele>1082.1</ele>
        <time>2011-05-01T10:26:57Z</time>
      </trkpt>
      <trkpt lat="42.39757" lon="0.02303">
        <ele>1091.7</ele>
        <time>2011-05-01T10:28:00Z</time>
      </trkpt>
      <trkpt lat="42.39649" lon="0.02246">
        <ele>1098.9</ele>
        <time>2011-05-01T10:29:12Z</time>
      </trkpt>
      <trkpt lat="42.39491" lon="0.0212">
        <ele>1111.4</ele>
        <time>2011-05-01T10:30:57Z</time>
      </trkpt>
      <trkpt lat="42.39481" lon="0.0212">
        <ele>1111.9</ele>
        <time>2011-05-01T10:31:03Z</time>
      </trkpt>
      <trkpt lat="42.39344" lon="0.02064">
        <ele>1114.3</ele>
        <time>2011-05-01T10:32:25Z</time>
      </trkpt>
      <trkpt lat="42.3928" lon="0.01946">
        <ele>1105.2</ele>
        <time>2011-05-01T10:33:28Z</time>
      </trkpt>
      <trkpt lat="42.39285" lon="0.01792">
        <ele>1107.6</ele>
        <time>2011-05-01T10:34:34Z</time>
      </trkpt>
      <trkpt lat="42.39176" lon="0.01534">
        <ele>1111.4</ele>
        <time>2011-05-01T10:36:41Z</time>
      </trkpt>
      <trkpt lat="42.3913" lon="0.01511">
        <ele>1115.7</ele>
        <time>2011-05-01T10:37:09Z</time>
      </trkpt>
      <trkpt lat="42.39028" lon="0.01402">
        <ele>1123.4</ele>
        <time>2011-05-01T10:38:23Z</time>
      </trkpt>
      <trkpt lat="42.38915" lon="0.01368">
        <ele>1130.2</ele>
        <time>2011-05-01T10:39:30Z</time>
      </trkpt>
      <trkpt lat="42.3883" lon="0.01334">
        <ele>1139.3</ele>
        <time>2011-05-01T10:40:23Z</time>
      </trkpt>
      <trkpt lat="42.38783" lon="0.01368">
        <ele>1140.3</ele>
        <time>2011-05-01T10:40:54Z</time>
      </trkpt>
      <trkpt lat="42.38653" lon="0.013">
        <ele>1148.4</ele>
        <time>2011-05-01T10:42:13Z</time>
      </trkpt>
      <trkpt lat="42.38564" lon="0.01222">
        <ele>1154.2</ele>
        <time>2011-05-01T10:43:14Z</time>
      </trkpt>
      <trkpt lat="42.38489" lon="0.01127">
        <ele>1168.1</ele>
        <time>2011-05-01T10:44:14Z</time>
      </trkpt>
      <trkpt lat="42.38465" lon="0.0104">
        <ele>1176.8</ele>
        <time>2011-05-01T10:44:54Z</time>
      </trkpt>
      <trkpt lat="42.38353" lon="0.00926">
        <ele>1179.7</ele>
        <time>2011-05-01T10:46:15Z</time>
      </trkpt>
      <trkpt lat="42.38275" lon="0.008">
        <ele>1172.5</ele>
        <time>2011-05-01T10:47:25Z</time>
      </trkpt>
      <trkpt lat="42.38269" lon="0.00825">
        <ele>1177.8</ele>
        <time>2011-05-01T10:47:51Z</time>
      </trkpt>
      <trkpt lat="42.38272" lon="0.00911">
        <ele>1188.8</ele>
        <time>2011-05-01T10:48:28Z</time>
      </trkpt>
      <trkpt lat="42.38268" lon="0.01016">
        <ele>1203.2</ele>
        <time>2011-05-01T10:49:15Z</time>
      </trkpt>
      <trkpt lat="42.38244" lon="0.01243">
        <ele>1204.2</ele>
        <time>2011-05-01T10:50:52Z</time>
      </trkpt>
      <trkpt lat="42.38257" lon="0.01301">
        <ele>1200.8</ele>
        <time>2011-05-01T10:51:37Z</time>
      </trkpt>
      <trkpt lat="42.3817" lon="0.01374">
        <ele>1200.3</ele>
        <time>2011-05-01T10:52:42Z</time>
      </trkpt>
      <trkpt lat="42.38085" lon="0.01426">
        <ele>1200.8</ele>
        <time>2011-05-01T10:53:35Z</time>
      </trkpt>
      <trkpt lat="42.38127" lon="0.01509">
        <ele>1204.2</ele>
        <time>2011-05-01T10:54:19Z</time>
      </trkpt>
      <trkpt lat="42.38147" lon="0.01665">
        <ele>1207.6</ele>
        <time>2011-05-01T10:55:26Z</time>
      </trkpt>
      <trkpt lat="42.3818" lon="0.01789">
        <ele>1210</ele>
        <time>2011-05-01T10:56:22Z</time>
      </trkpt>
      <trkpt lat="42.38149" lon="0.01845">
        <ele>1217.6</ele>
        <time>2011-05-01T10:56:53Z</time>
      </trkpt>
      <trkpt lat="42.38105" lon="0.01922">
        <ele>1234</ele>
        <time>2011-05-01T10:57:34Z</time>
      </trkpt>
      <trkpt lat="42.3806" lon="0.01984">
        <ele>1242.2</ele>
        <time>2011-05-01T10:58:11Z</time>
      </trkpt>
      <trkpt lat="42.37975" lon="0.01994">
        <ele>1251.3</ele>
        <time>2011-05-01T10:59:00Z</time>
      </trkpt>
      <trkpt lat="42.37947" lon="0.01951">
        <ele>1249.9</ele>
        <time>2011-05-01T10:59:24Z</time>
      </trkpt>
      <trkpt lat="42.37828" lon="0.01888">
        <ele>1256.1</ele>
        <time>2011-05-01T11:00:38Z</time>
      </trkpt>
      <trkpt lat="42.37762" lon="0.01923">
        <ele>1266.7</ele>
        <time>2011-05-01T11:01:21Z</time>
      </trkpt>
      <trkpt lat="42.37704" lon="0.01924">
        <ele>1268.1</ele>
        <time>2011-05-01T11:01:54Z</time>
      </trkpt>
      <trkpt lat="42.37595" lon="0.01999">
        <ele>1274.8</ele>
        <time>2011-05-01T11:03:05Z</time>
      </trkpt>
      <trkpt lat="42.37466" lon="0.02038">
        <ele>1281.6</ele>
        <time>2011-05-01T11:04:21Z</time>
      </trkpt>
      <trkpt lat="42.37407" lon="0.02072">
        <ele>1287.8</ele>
        <time>2011-05-01T11:04:57Z</time>
      </trkpt>
      <trkpt lat="42.37456" lon="0.02154">
        <ele>1305.6</ele>
        <time>2011-05-01T11:05:43Z</time>
      </trkpt>
      <trkpt lat="42.37471" lon="0.02171">
        <ele>1296.5</ele>
        <time>2011-05-01T11:05:59Z</time>
      </trkpt>
      <trkpt lat="42.37392" lon="0.02069">
        <ele>1284.9</ele>
        <time>2011-05-01T11:07:09Z</time>
      </trkpt>
      <trkpt lat="42.37261" lon="0.0214">
        <ele>1275.8</ele>
        <time>2011-05-01T11:08:30Z</time>
      </trkpt>
      <trkpt lat="42.37108" lon="0.0214">
        <ele>1267.2</ele>
        <time>2011-05-01T11:09:58Z</time>
      </trkpt>
      <trkpt lat="42.36854" lon="0.02198">
        <ele>1226.3</ele>
        <time>2011-05-01T11:12:26Z</time>
      </trkpt>
      <trkpt lat="42.36713" lon="0.02314">
        <ele>1202.7</ele>
        <time>2011-05-01T11:14:00Z</time>
      </trkpt>
      <trkpt lat="42.36507" lon="0.02357">
        <ele>1190.7</ele>
        <time>2011-05-01T11:16:00Z</time>
      </trkpt>
      <trkpt lat="42.36383" lon="0.024">
        <ele>1182.1</ele>
        <time>2011-05-01T11:17:14Z</time>
      </trkpt>
      <trkpt lat="42.36267" lon="0.02418">
        <ele>1183</ele>
        <time>2011-05-01T11:18:22Z</time>
      </trkpt>
      <trkpt lat="42.36194" lon="0.02411">
        <ele>1182.1</ele>
        <time>2011-05-01T11:19:04Z</time>
      </trkpt>
      <trkpt lat="42.36115" lon="0.02433">
        <ele>1177.8</ele>
        <time>2011-05-01T11:19:50Z</time>
      </trkpt>
      <trkpt lat="42.36021" lon="0.02437">
        <ele>1175.8</ele>
        <time>2011-05-01T11:20:45Z</time>
      </trkpt>
      <trkpt lat="42.35897" lon="0.02458">
        <ele>1176.3</ele>
        <time>2011-05-01T11:21:56Z</time>
      </trkpt>
      <trkpt lat="42.35821" lon="0.02457">
        <ele>1170.1</ele>
        <time>2011-05-01T11:22:40Z</time>
      </trkpt>
      <trkpt lat="42.35626" lon="0.02449">
        <ele>1172</ele>
        <time>2011-05-01T11:24:32Z</time>
      </trkpt>
      <trkpt lat="42.35526" lon="0.02468">
        <ele>1168.1</ele>
        <time>2011-05-01T11:25:30Z</time>
      </trkpt>
      <trkpt lat="42.35481" lon="0.02462">
        <ele>1164.3</ele>
        <time>2011-05-01T11:25:57Z</time>
      </trkpt>
      <trkpt lat="42.35364" lon="0.02473">
        <ele>1160.4</ele>
        <time>2011-05-01T11:27:05Z</time>
      </trkpt>
      <trkpt lat="42.35295" lon="0.02475">
        <ele>1160.4</ele>
        <time>2011-05-01T11:27:44Z</time>
      </trkpt>
      <trkpt lat="42.35244" lon="0.02508">
        <ele>1159.5</ele>
        <time>2011-05-01T11:28:18Z</time>
      </trkpt>
      <trkpt lat="42.35183" lon="0.02561">
        <ele>1160.4</ele>
        <time>2011-05-01T11:29:01Z</time>
      </trkpt>
      <trkpt lat="42.35125" lon="0.02617">
        <ele>1162.4</ele>
        <time>2011-05-01T11:29:43Z</time>
      </trkpt>
      <trkpt lat="42.35068" lon="0.02662">
        <ele>1159.5</ele>
        <time>2011-05-01T11:30:20Z</time>
      </trkpt>
      <trkpt lat="42.34994" lon="0.0271">
        <ele>1157.6</ele>
        <time>2011-05-01T11:31:08Z</time>
      </trkpt>
      <trkpt lat="42.34941" lon="0.02775">
        <ele>1149.9</ele>
        <time>2011-05-01T11:31:49Z</time>
      </trkpt>
      <trkpt lat="42.34783" lon="0.02867">
        <ele>1146</ele>
        <time>2011-05-01T11:33:28Z</time>
      </trkpt>
      <trkpt lat="42.34625" lon="0.02999">
        <ele>1117.7</ele>
        <time>2011-05-01T11:35:14Z</time>
      </trkpt>
      <trkpt lat="42.34536" lon="0.0301">
        <ele>1107.1</ele>
        <time>2011-05-01T11:36:07Z</time>
      </trkpt>
      <trkpt lat="42.34453" lon="0.0303">
        <ele>1094.6</ele>
        <time>2011-05-01T11:36:54Z</time>
      </trkpt>
      <trkpt lat="42.34312" lon="0.03097">
        <ele>1073.9</ele>
        <time>2011-05-01T11:38:20Z</time>
      </trkpt>
      <trkpt lat="42.34267" lon="0.03152">
        <ele>1066.2</ele>
        <time>2011-05-01T11:39:05Z</time>
      </trkpt>
      <trkpt lat="42.34161" lon="0.03239">
        <ele>1048.9</ele>
        <time>2011-05-01T11:40:18Z</time>
      </trkpt>
      <trkpt lat="42.34101" lon="0.03363">
        <ele>1032.6</ele>
        <time>2011-05-01T11:41:21Z</time>
      </trkpt>
      <trkpt lat="42.34062" lon="0.0338">
        <ele>1026.3</ele>
        <time>2011-05-01T11:41:45Z</time>
      </trkpt>
      <trkpt lat="42.33963" lon="0.03432">
        <ele>1004.2</ele>
        <time>2011-05-01T11:42:48Z</time>
      </trkpt>
      <trkpt lat="42.33938" lon="0.03456">
        <ele>995.1</ele>
        <time>2011-05-01T11:43:05Z</time>
      </trkpt>
      <trkpt lat="42.3391" lon="0.03526">
        <ele>988.4</ele>
        <time>2011-05-01T11:43:41Z</time>
      </trkpt>
      <trkpt lat="42.34077" lon="0.03615">
        <ele>994.1</ele>
        <time>2011-05-01T11:45:24Z</time>
      </trkpt>
      <trkpt lat="42.34145" lon="0.03593">
        <ele>980.2</ele>
        <time>2011-05-01T11:46:05Z</time>
      </trkpt>
      <trkpt lat="42.34277" lon="0.0352">
        <ele>966.7</ele>
        <time>2011-05-01T11:47:28Z</time>
      </trkpt>
      <trkpt lat="42.34382" lon="0.03482">
        <ele>942.2</ele>
        <time>2011-05-01T11:48:36Z</time>
      </trkpt>
      <trkpt lat="42.34469" lon="0.03514">
        <ele>938.4</ele>
        <time>2011-05-01T11:49:28Z</time>
      </trkpt>
      <trkpt lat="42.34555" lon="0.03514">
        <ele>927.3</ele>
        <time>2011-05-01T11:50:17Z</time>
      </trkpt>
      <trkpt lat="42.34644" lon="0.03541">
        <ele>915.8</ele>
        <time>2011-05-01T11:51:10Z</time>
      </trkpt>
      <trkpt lat="42.34674" lon="0.03563">
        <ele>913.9</ele>
        <time>2011-05-01T11:51:30Z</time>
      </trkpt>
      <trkpt lat="42.34853" lon="0.03621">
        <ele>900.4</ele>
        <time>2011-05-01T11:53:16Z</time>
      </trkpt>
      <trkpt lat="42.3497" lon="0.03525">
        <ele>887.4</ele>
        <time>2011-05-01T11:54:36Z</time>
      </trkpt>
      <trkpt lat="42.35026" lon="0.03513">
        <ele>885.5</ele>
        <time>2011-05-01T11:55:10Z</time>
      </trkpt>
      <trkpt lat="42.35116" lon="0.03523">
        <ele>868.2</ele>
        <time>2011-05-01T11:56:04Z</time>
      </trkpt>
      <trkpt lat="42.35161" lon="0.03513">
        <ele>862.4</ele>
        <time>2011-05-01T11:56:30Z</time>
      </trkpt>
      <trkpt lat="42.35206" lon="0.03542">
        <ele>837</ele>
        <time>2011-05-01T11:57:15Z</time>
      </trkpt>
      <trkpt lat="42.35243" lon="0.03499">
        <ele>833.6</ele>
        <time>2011-05-01T11:57:43Z</time>
      </trkpt>
      <trkpt lat="42.35313" lon="0.03472">
        <ele>827.4</ele>
        <time>2011-05-01T11:58:28Z</time>
      </trkpt>
      <trkpt lat="42.35421" lon="0.0345">
        <ele>827.8</ele>
        <time>2011-05-01T11:59:32Z</time>
      </trkpt>
      <trkpt lat="42.35476" lon="0.03456">
        <ele>823.5</ele>
        <time>2011-05-01T12:00:06Z</time>
      </trkpt>
      <trkpt lat="42.35573" lon="0.03433">
        <ele>811.5</ele>
        <time>2011-05-01T12:01:14Z</time>
      </trkpt>
      <trkpt lat="42.35688" lon="0.03421">
        <ele>787.5</ele>
        <time>2011-05-01T12:02:23Z</time>
      </trkpt>
      <trkpt lat="42.3576" lon="0.03476">
        <ele>771.1</ele>
        <time>2011-05-01T12:03:11Z</time>
      </trkpt>
      <trkpt lat="42.35857" lon="0.03527">
        <ele>760.1</ele>
        <time>2011-05-01T12:04:13Z</time>
      </trkpt>
      <trkpt lat="42.35917" lon="0.0358">
        <ele>755.3</ele>
        <time>2011-05-01T12:04:54Z</time>
      </trkpt>
      <trkpt lat="42.36114" lon="0.03664">
        <ele>754</ele>
        <time>2013-04-30T15:32:23Z</time>
      </trkpt>
      <trkpt lat="42.36147" lon="0.03684">
        <ele>761.5</ele>
        <time>2013-04-30T15:35:16Z</time>
      </trkpt>
      <trkpt lat="42.36168" lon="0.03681">
        <ele>759.6</ele>
        <time>2013-04-30T15:41:45Z</time>
      </trkpt>
      <trkpt lat="42.36191" lon="0.03686">
        <ele>757.7</ele>
        <time>2013-04-30T15:43:07Z</time>
      </trkpt>
      <trkpt lat="42.36223" lon="0.03688">
        <ele>755.2</ele>
        <time>2013-04-30T15:49:18Z</time>
      </trkpt>
      <trkpt lat="42.36245" lon="0.03695">
        <ele>753.8</ele>
        <time>2013-04-30T15:52:36Z</time>
      </trkpt>
      <trkpt lat="42.36262" lon="0.03693">
        <ele>753.3</ele>
        <time>2013-04-30T15:56:32Z</time>
      </trkpt>
      <trkpt lat="42.36332" lon="0.03674">
        <ele>753.3</ele>
        <time>2013-04-30T15:59:57Z</time>
      </trkpt>
      <trkpt lat="42.36342" lon="0.03664">
        <ele>752.4</ele>
        <time>2013-04-30T16:02:19Z</time>
      </trkpt>
      <trkpt lat="42.36391" lon="0.03659">
        <ele>751.9</ele>
        <time>2013-04-30T16:04:19Z</time>
      </trkpt>
      <trkpt lat="42.36419" lon="0.03647">
        <ele>750.5</ele>
        <time>2013-04-30T16:06:14Z</time>
      </trkpt>
      <trkpt lat="42.36437" lon="0.0364">
        <ele>749.5</ele>
        <time>2013-04-30T16:09:49Z</time>
      </trkpt>
      <trkpt lat="42.36464" lon="0.03662">
        <ele>744.7</ele>
        <time>2013-04-30T16:15:03Z</time>
      </trkpt>
      <trkpt lat="42.36528" lon="0.03694">
        <ele>738.4</ele>
        <time>2013-04-30T16:17:36Z</time>
      </trkpt>
      <trkpt lat="42.36575" lon="0.03709">
        <ele>733.6</ele>
        <time>2013-04-30T16:25:39Z</time>
      </trkpt>
      <trkpt lat="42.36646" lon="0.03745">
        <ele>728.3</ele>
        <time>2013-04-30T16:26:56Z</time>
      </trkpt>
      <trkpt lat="42.36719" lon="0.03763">
        <ele>727.9</ele>
        <time>2013-04-30T16:31:33Z</time>
      </trkpt>
      <trkpt lat="42.36727" lon="0.03783">
        <ele>724.5</ele>
        <time>2013-04-30T16:33:49Z</time>
      </trkpt>
      <trkpt lat="42.36729" lon="0.03787">
        <ele>723.5</ele>
        <time>2013-04-30T16:36:06Z</time>
      </trkpt>
      <trkpt lat="42.36787" lon="0.03812">
        <ele>723</ele>
        <time>2013-04-30T16:41:26Z</time>
      </trkpt>
      <trkpt lat="42.36808" lon="0.03825">
        <ele>724</ele>
        <time>2013-04-30T16:42:26Z</time>
      </trkpt>
      <trkpt lat="42.36813" lon="0.03845">
        <ele>724</ele>
        <time>2013-04-30T16:44:20Z</time>
      </trkpt>
      <trkpt lat="42.36834" lon="0.03887">
        <ele>725</ele>
        <time>2013-04-30T16:46:56Z</time>
      </trkpt>
      <trkpt lat="42.36915" lon="0.03931">
        <ele>723</ele>
        <time>2011-05-01T12:15:37Z</time>
      </trkpt>
      <trkpt lat="42.36914" lon="0.03991">
        <ele>729.8</ele>
        <time>2011-05-01T12:16:06Z</time>
      </trkpt>
      <trkpt lat="42.36965" lon="0.04029">
        <ele>742.3</ele>
        <time>2011-05-01T12:16:40Z</time>
      </trkpt>
      <trkpt lat="42.37045" lon="0.04045">
        <ele>743.7</ele>
        <time>2011-05-01T12:17:27Z</time>
      </trkpt>
      <trkpt lat="42.37125" lon="0.04087">
        <ele>741.8</ele>
        <time>2011-05-01T12:18:16Z</time>
      </trkpt>
      <trkpt lat="42.37187" lon="0.04186">
        <ele>739.4</ele>
        <time>2011-05-01T12:19:11Z</time>
      </trkpt>
      <trkpt lat="42.37227" lon="0.04177">
        <ele>740.4</ele>
        <time>2011-05-01T12:19:38Z</time>
      </trkpt>
      <trkpt lat="42.37219" lon="0.03991">
        <ele>737.5</ele>
        <time>2011-05-01T12:20:57Z</time>
      </trkpt>
      <trkpt lat="42.37199" lon="0.03843">
        <ele>742.8</ele>
        <time>2011-05-01T12:22:03Z</time>
      </trkpt>
      <trkpt lat="42.37225" lon="0.03704">
        <ele>751.4</ele>
        <time>2011-05-01T12:23:06Z</time>
      </trkpt>
      <trkpt lat="42.37246" lon="0.03738">
        <ele>749.5</ele>
        <time>2011-05-01T12:23:29Z</time>
      </trkpt>
      <trkpt lat="42.37273" lon="0.03792">
        <ele>755.7</ele>
        <time>2011-05-01T12:24:00Z</time>
      </trkpt>
      <trkpt lat="42.37369" lon="0.03697">
        <ele>763.9</ele>
        <time>2011-05-01T12:25:09Z</time>
      </trkpt>
      <trkpt lat="42.37403" lon="0.03735">
        <ele>760.5</ele>
        <time>2011-05-01T12:25:36Z</time>
      </trkpt>
      <trkpt lat="42.37421" lon="0.03837">
        <ele>766.3</ele>
        <time>2011-05-01T12:26:23Z</time>
      </trkpt>
      <trkpt lat="42.37425" lon="0.03847">
        <ele>767.3</ele>
        <time>2011-05-01T12:26:48Z</time>
      </trkpt>
      <trkpt lat="42.37471" lon="0.03759">
        <ele>779.8</ele>
        <time>2011-05-01T12:27:55Z</time>
      </trkpt>
      <trkpt lat="42.37526" lon="0.03708">
        <ele>792.3</ele>
        <time>2011-05-01T12:28:38Z</time>
      </trkpt>
      <trkpt lat="42.37685" lon="0.03537">
        <ele>808.1</ele>
        <time>2011-05-01T12:30:35Z</time>
      </trkpt>
      <trkpt lat="42.37756" lon="0.03605">
        <ele>812.9</ele>
        <time>2011-05-01T12:31:34Z</time>
      </trkpt>
      <trkpt lat="42.37883" lon="0.0361">
        <ele>825.9</ele>
        <time>2011-05-01T12:32:49Z</time>
      </trkpt>
      <trkpt lat="42.37974" lon="0.03565">
        <ele>831.2</ele>
        <time>2011-05-01T12:33:47Z</time>
      </trkpt>
      <trkpt lat="42.38053" lon="0.03507">
        <ele>838.9</ele>
        <time>2011-05-01T12:34:50Z</time>
      </trkpt>
      <trkpt lat="42.38132" lon="0.03455">
        <ele>845.6</ele>
        <time>2011-05-01T12:35:41Z</time>
      </trkpt>
      <trkpt lat="42.38179" lon="0.03362">
        <ele>854.7</ele>
        <time>2011-05-01T12:36:29Z</time>
      </trkpt>
      <trkpt lat="42.3821" lon="0.03394">
        <ele>857.6</ele>
        <time>2011-05-01T12:37:07Z</time>
      </trkpt>
      <trkpt lat="42.38255" lon="0.03459">
        <ele>850.4</ele>
        <time>2011-05-01T12:37:45Z</time>
      </trkpt>
      <trkpt lat="42.38368" lon="0.03468">
        <ele>852.8</ele>
        <time>2011-05-01T12:38:52Z</time>
      </trkpt>
      <trkpt lat="42.38477" lon="0.0354">
        <ele>864.8</ele>
        <time>2011-05-01T12:40:01Z</time>
      </trkpt>
      <trkpt lat="42.38517" lon="0.03626">
        <ele>868.7</ele>
        <time>2011-05-01T12:40:45Z</time>
      </trkpt>
      <trkpt lat="42.38485" lon="0.03775">
        <ele>872.1</ele>
        <time>2011-05-01T12:41:51Z</time>
      </trkpt>
      <trkpt lat="42.38531" lon="0.03928">
        <ele>855.7</ele>
        <time>2011-05-01T12:43:02Z</time>
      </trkpt>
      <trkpt lat="42.38495" lon="0.04005">
        <ele>848.5</ele>
        <time>2011-05-01T12:43:43Z</time>
      </trkpt>
      <trkpt lat="42.38355" lon="0.0408">
        <ele>832.6</ele>
        <time>2011-05-01T12:45:09Z</time>
      </trkpt>
      <trkpt lat="42.3828" lon="0.04092">
        <ele>820.1</ele>
        <time>2011-05-01T12:45:53Z</time>
      </trkpt>
      <trkpt lat="42.38262" lon="0.04136">
        <ele>811.5</ele>
        <time>2011-05-01T12:46:16Z</time>
      </trkpt>
      <trkpt lat="42.38295" lon="0.04253">
        <ele>793.7</ele>
        <time>2011-05-01T12:47:16Z</time>
      </trkpt>
      <trkpt lat="42.38271" lon="0.04335">
        <ele>782.7</ele>
        <time>2011-05-01T12:47:56Z</time>
      </trkpt>
      <trkpt lat="42.38297" lon="0.04387">
        <ele>768.7</ele>
        <time>2011-05-01T12:48:31Z</time>
      </trkpt>
      <trkpt lat="42.38291" lon="0.04524">
        <ele>747.1</ele>
        <time>2011-05-01T12:49:36Z</time>
      </trkpt>
      <trkpt lat="42.38301" lon="0.04654">
        <ele>741.3</ele>
        <time>2011-05-01T12:50:32Z</time>
      </trkpt>
      <trkpt lat="42.38278" lon="0.04735">
        <ele>744.2</ele>
        <time>2011-05-01T12:51:10Z</time>
      </trkpt>
      <trkpt lat="42.3829" lon="0.04817">
        <ele>725.5</ele>
        <time>2011-05-01T12:51:53Z</time>
      </trkpt>
      <trkpt lat="42.38331" lon="0.04919">
        <ele>724</ele>
        <time>2011-05-01T12:52:43Z</time>
      </trkpt>
      <trkpt lat="42.38348" lon="0.04998">
        <ele>714.9</ele>
        <time>2011-05-01T12:53:19Z</time>
      </trkpt>
      <trkpt lat="42.38443" lon="0.05043">
        <ele>699.5</ele>
        <time>2011-05-01T12:54:17Z</time>
      </trkpt>
      <trkpt lat="42.38378" lon="0.05111">
        <ele>672.6</ele>
        <time>2011-05-01T12:55:17Z</time>
      </trkpt>
      <trkpt lat="42.38406" lon="0.05193">
        <ele>651.4</ele>
        <time>2011-05-01T12:56:09Z</time>
      </trkpt>
      <trkpt lat="42.38381" lon="0.05235">
        <ele>646.1</ele>
        <time>2011-05-01T12:56:32Z</time>
      </trkpt>
      <trkpt lat="42.38375" lon="0.05372">
        <ele>639.9</ele>
        <time>2011-05-01T12:57:33Z</time>
      </trkpt>
      <trkpt lat="42.38335" lon="0.05304">
        <ele>640.9</ele>
        <time>2011-05-01T12:58:11Z</time>
      </trkpt>
      <trkpt lat="42.38232" lon="0.05255">
        <ele>642.8</ele>
        <time>2011-05-01T12:59:18Z</time>
      </trkpt>
      <trkpt lat="42.3819" lon="0.05385">
        <ele>644.2</ele>
        <time>2011-05-01T13:00:18Z</time>
      </trkpt>
      <trkpt lat="42.38236" lon="0.05479">
        <ele>647.1</ele>
        <time>2011-05-01T13:01:16Z</time>
      </trkpt>
      <trkpt lat="42.38175" lon="0.05647">
        <ele>648.1</ele>
        <time>2011-05-01T13:02:37Z</time>
      </trkpt>
      <trkpt lat="42.38042" lon="0.05736">
        <ele>652.9</ele>
        <time>2011-05-01T13:04:02Z</time>
      </trkpt>
      <trkpt lat="42.37924" lon="0.05743">
        <ele>653.8</ele>
        <time>2011-05-01T13:05:10Z</time>
      </trkpt>
      <trkpt lat="42.37902" lon="0.05821">
        <ele>650.9</ele>
        <time>2011-05-01T13:05:45Z</time>
      </trkpt>
      <trkpt lat="42.3788" lon="0.05932">
        <ele>652.9</ele>
        <time>2011-05-01T13:06:38Z</time>
      </trkpt>
      <trkpt lat="42.37642" lon="0.05965">
        <ele>661</ele>
        <time>2011-05-01T13:08:56Z</time>
      </trkpt>
      <trkpt lat="42.3762" lon="0.06006">
        <ele>658.6</ele>
        <time>2011-05-01T13:09:17Z</time>
      </trkpt>
      <trkpt lat="42.37629" lon="0.06131">
        <ele>663</ele>
        <time>2011-05-01T13:10:12Z</time>
      </trkpt>
      <trkpt lat="42.37556" lon="0.06221">
        <ele>662.5</ele>
        <time>2011-05-01T13:11:09Z</time>
      </trkpt>
      <trkpt lat="42.3749" lon="0.06138">
        <ele>670.7</ele>
        <time>2011-05-01T13:12:13Z</time>
      </trkpt>
      <trkpt lat="42.3731" lon="0.06304">
        <ele>674</ele>
        <time>2011-05-01T13:14:19Z</time>
      </trkpt>
      <trkpt lat="42.37277" lon="0.06506">
        <ele>673.5</ele>
        <time>2011-05-01T13:15:47Z</time>
      </trkpt>
      <trkpt lat="42.37205" lon="0.0668">
        <ele>688</ele>
        <time>2011-05-01T13:17:12Z</time>
      </trkpt>
      <trkpt lat="42.3711" lon="0.06771">
        <ele>690.4</ele>
        <time>2011-05-01T13:18:20Z</time>
      </trkpt>
      <trkpt lat="42.37118" lon="0.06876">
        <ele>691.3</ele>
        <time>2011-05-01T13:19:13Z</time>
      </trkpt>
      <trkpt lat="42.37262" lon="0.068">
        <ele>709.1</ele>
        <time>2011-05-01T13:20:41Z</time>
      </trkpt>
      <trkpt lat="42.37433" lon="0.06818">
        <ele>704.8</ele>
        <time>2011-05-01T13:22:20Z</time>
      </trkpt>
      <trkpt lat="42.37759" lon="0.06787">
        <ele>701.4</ele>
        <time>2011-05-01T13:25:29Z</time>
      </trkpt>
      <trkpt lat="42.37761" lon="0.06811">
        <ele>700.9</ele>
        <time>2011-05-01T13:25:39Z</time>
      </trkpt>
      <trkpt lat="42.37648" lon="0.06876">
        <ele>705.7</ele>
        <time>2011-05-01T13:26:49Z</time>
      </trkpt>
      <trkpt lat="42.37374" lon="0.07312">
        <ele>725</ele>
        <time>2011-05-01T13:30:51Z</time>
      </trkpt>
      <trkpt lat="42.3737" lon="0.07375">
        <ele>726.4</ele>
        <time>2011-05-01T13:31:18Z</time>
      </trkpt>
      <trkpt lat="42.37274" lon="0.07502">
        <ele>733.6</ele>
        <time>2011-05-01T13:32:35Z</time>
      </trkpt>
      <trkpt lat="42.37262" lon="0.07536">
        <ele>738.4</ele>
        <time>2011-05-01T13:32:51Z</time>
      </trkpt>
      <trkpt lat="42.3733" lon="0.07643">
        <ele>751.4</ele>
        <time>2011-05-01T13:33:51Z</time>
      </trkpt>
      <trkpt lat="42.37286" lon="0.07625">
        <ele>762</ele>
        <time>2011-05-01T13:34:38Z</time>
      </trkpt>
      <trkpt lat="42.37214" lon="0.07593">
        <ele>772.1</ele>
        <time>2011-05-01T13:35:22Z</time>
      </trkpt>
      <trkpt lat="42.37154" lon="0.07657">
        <ele>777.4</ele>
        <time>2011-05-01T13:36:06Z</time>
      </trkpt>
      <trkpt lat="42.37116" lon="0.07741">
        <ele>779.3</ele>
        <time>2011-05-01T13:36:49Z</time>
      </trkpt>
      <trkpt lat="42.37007" lon="0.07735">
        <ele>789.4</ele>
        <time>2011-05-01T13:37:52Z</time>
      </trkpt>
      <trkpt lat="42.36968" lon="0.07755">
        <ele>790.3</ele>
        <time>2011-05-01T13:38:15Z</time>
      </trkpt>
      <trkpt lat="42.36881" lon="0.07727">
        <ele>797.1</ele>
        <time>2011-05-01T13:39:07Z</time>
      </trkpt>
      <trkpt lat="42.36654" lon="0.07789">
        <ele>807.2</ele>
        <time>2011-05-01T13:41:20Z</time>
      </trkpt>
      <trkpt lat="42.36613" lon="0.07991">
        <ele>815.8</ele>
        <time>2011-05-01T13:42:50Z</time>
      </trkpt>
      <trkpt lat="42.36659" lon="0.08135">
        <ele>815.8</ele>
        <time>2011-05-01T13:43:56Z</time>
      </trkpt>
      <trkpt lat="42.36657" lon="0.08247">
        <ele>816.8</ele>
        <time>2011-05-01T13:44:44Z</time>
      </trkpt>
      <trkpt lat="42.36569" lon="0.08321">
        <ele>816.8</ele>
        <time>2011-05-01T13:45:44Z</time>
      </trkpt>
      <trkpt lat="42.36508" lon="0.08424">
        <ele>817.7</ele>
        <time>2011-05-01T13:46:40Z</time>
      </trkpt>
      <trkpt lat="42.36335" lon="0.08503">
        <ele>825.9</ele>
        <time>2011-05-01T13:48:24Z</time>
      </trkpt>
      <trkpt lat="42.36301" lon="0.0872">
        <ele>834.6</ele>
        <time>2011-05-01T13:49:58Z</time>
      </trkpt>
      <trkpt lat="42.36193" lon="0.08885">
        <ele>841.8</ele>
        <time>2011-05-01T13:51:32Z</time>
      </trkpt>
      <trkpt lat="42.36175" lon="0.09053">
        <ele>849.5</ele>
        <time>2011-05-01T13:52:45Z</time>
      </trkpt>
      <trkpt lat="42.36275" lon="0.09196">
        <ele>853.3</ele>
        <time>2011-05-01T13:54:08Z</time>
      </trkpt>
      <trkpt lat="42.36354" lon="0.09231">
        <ele>852.3</ele>
        <time>2011-05-01T13:54:56Z</time>
      </trkpt>
      <trkpt lat="42.36465" lon="0.09222">
        <ele>855.7</ele>
        <time>2011-05-01T13:55:59Z</time>
      </trkpt>
      <trkpt lat="42.36529" lon="0.09118">
        <ele>860.5</ele>
        <time>2011-05-01T13:56:57Z</time>
      </trkpt>
      <trkpt lat="42.36562" lon="0.09109">
        <ele>862</ele>
        <time>2011-05-01T13:57:16Z</time>
      </trkpt>
      <trkpt lat="42.36592" lon="0.09136">
        <ele>860.5</ele>
        <time>2011-05-01T13:57:37Z</time>
      </trkpt>
      <trkpt lat="42.36695" lon="0.09193">
        <ele>858.1</ele>
        <time>2011-05-01T13:58:42Z</time>
      </trkpt>
      <trkpt lat="42.36672" lon="0.09527">
        <ele>847.1</ele>
        <time>2011-05-01T14:01:05Z</time>
      </trkpt>
      <trkpt lat="42.36726" lon="0.09668">
        <ele>840.3</ele>
        <time>2011-05-01T14:02:14Z</time>
      </trkpt>
      <trkpt lat="42.36785" lon="0.097">
        <ele>836</ele>
        <time>2011-05-01T14:02:51Z</time>
      </trkpt>
      <trkpt lat="42.36818" lon="0.09695">
        <ele>838.9</ele>
        <time>2011-05-01T14:03:13Z</time>
      </trkpt>
      <trkpt lat="42.36857" lon="0.09764">
        <ele>842.3</ele>
        <time>2011-05-01T14:03:54Z</time>
      </trkpt>
      <trkpt lat="42.36857" lon="0.09765">
        <ele>841.3</ele>
        <time>2011-05-01T14:03:57Z</time>
      </trkpt>
      <trkpt lat="42.36858" lon="0.09763">
        <ele>841.8</ele>
        <time>2011-05-01T14:03:58Z</time>
      </trkpt>
      <trkpt lat="42.36859" lon="0.09762">
        <ele>843.7</ele>
        <time>2011-05-01T14:04:02Z</time>
      </trkpt>
      <trkpt lat="42.36966" lon="0.09829">
        <ele>850.9</ele>
        <time>2011-05-01T14:05:10Z</time>
      </trkpt>
      <trkpt lat="42.37031" lon="0.09928">
        <ele>859.1</ele>
        <time>2011-05-01T14:06:10Z</time>
      </trkpt>
      <trkpt lat="42.37124" lon="0.0985">
        <ele>859.6</ele>
        <time>2011-05-01T14:07:15Z</time>
      </trkpt>
      <trkpt lat="42.37229" lon="0.09836">
        <ele>847.1</ele>
        <time>2011-05-01T14:08:15Z</time>
      </trkpt>
      <trkpt lat="42.37292" lon="0.09798">
        <ele>841.3</ele>
        <time>2011-05-01T14:08:55Z</time>
      </trkpt>
      <trkpt lat="42.37395" lon="0.09818">
        <ele>833.1</ele>
        <time>2011-05-01T14:09:55Z</time>
      </trkpt>
      <trkpt lat="42.37557" lon="0.09865">
        <ele>827.8</ele>
        <time>2011-05-01T14:11:31Z</time>
      </trkpt>
      <trkpt lat="42.37624" lon="0.09881">
        <ele>821.1</ele>
        <time>2011-05-01T14:12:11Z</time>
      </trkpt>
      <trkpt lat="42.37546" lon="0.09898">
        <ele>812.9</ele>
        <time>2011-05-01T14:12:57Z</time>
      </trkpt>
      <trkpt lat="42.37498" lon="0.09885">
        <ele>805.7</ele>
        <time>2011-05-01T14:13:25Z</time>
      </trkpt>
      <trkpt lat="42.37398" lon="0.09909">
        <ele>792.7</ele>
        <time>2011-05-01T14:14:23Z</time>
      </trkpt>
      <trkpt lat="42.37467" lon="0.09935">
        <ele>779.8</ele>
        <time>2011-05-01T14:15:07Z</time>
      </trkpt>
      <trkpt lat="42.37461" lon="0.09949">
        <ele>774</ele>
        <time>2011-05-01T14:15:23Z</time>
      </trkpt>
      <trkpt lat="42.3751" lon="0.09979">
        <ele>765.3</ele>
        <time>2011-05-01T14:16:04Z</time>
      </trkpt>
      <trkpt lat="42.37586" lon="0.0999">
        <ele>756.2</ele>
        <time>2011-05-01T14:17:01Z</time>
      </trkpt>
      <trkpt lat="42.37656" lon="0.10046">
        <ele>749.5</ele>
        <time>2011-05-01T14:17:50Z</time>
      </trkpt>
      <trkpt lat="42.37647" lon="0.10122">
        <ele>745.2</ele>
        <time>2011-05-01T14:18:25Z</time>
      </trkpt>
      <trkpt lat="42.37711" lon="0.10116">
        <ele>729.8</ele>
        <time>2011-05-01T14:19:11Z</time>
      </trkpt>
      <trkpt lat="42.37763" lon="0.10149">
        <ele>716.8</ele>
        <time>2011-05-01T14:19:47Z</time>
      </trkpt>
      <trkpt lat="42.37801" lon="0.10254">
        <ele>709.1</ele>
        <time>2011-05-01T14:20:37Z</time>
      </trkpt>
      <trkpt lat="42.37805" lon="0.10426">
        <ele>700</ele>
        <time>2011-05-01T14:21:50Z</time>
      </trkpt>
      <trkpt lat="42.37823" lon="0.10521">
        <ele>694.2</ele>
        <time>2011-05-01T14:22:31Z</time>
      </trkpt>
      <trkpt lat="42.3792" lon="0.10588">
        <ele>684.6</ele>
        <time>2011-05-01T14:23:37Z</time>
      </trkpt>
      <trkpt lat="42.38014" lon="0.10671">
        <ele>677.9</ele>
        <time>2011-05-01T14:24:41Z</time>
      </trkpt>
      <trkpt lat="42.38027" lon="0.10636">
        <ele>675.5</ele>
        <time>2011-05-01T14:24:59Z</time>
      </trkpt>
      <trkpt lat="42.38072" lon="0.10652">
        <ele>682.2</ele>
        <time>2011-05-01T14:25:28Z</time>
      </trkpt>
      <trkpt lat="42.38139" lon="0.10621">
        <ele>687</ele>
        <time>2011-05-01T14:26:10Z</time>
      </trkpt>
      <trkpt lat="42.38217" lon="0.1061">
        <ele>691.3</ele>
        <time>2011-05-01T14:26:56Z</time>
      </trkpt>
      <trkpt lat="42.38261" lon="0.1059">
        <ele>697.1</ele>
        <time>2011-05-01T14:27:22Z</time>
      </trkpt>
      <trkpt lat="42.38347" lon="0.10613">
        <ele>699</ele>
        <time>2011-05-01T14:28:13Z</time>
      </trkpt>
      <trkpt lat="42.3838" lon="0.10685">
        <ele>678.8</ele>
        <time>2011-05-01T14:29:04Z</time>
      </trkpt>
      <trkpt lat="42.38487" lon="0.10706">
        <ele>673.5</ele>
        <time>2011-05-01T14:30:11Z</time>
      </trkpt>
      <trkpt lat="42.38564" lon="0.10848">
        <ele>662.5</ele>
        <time>2011-05-01T14:31:29Z</time>
      </trkpt>
      <trkpt lat="42.38612" lon="0.10853">
        <ele>658.2</ele>
        <time>2011-05-01T14:31:57Z</time>
      </trkpt>
      <trkpt lat="42.38691" lon="0.10853">
        <ele>653.4</ele>
        <time>2011-05-01T14:32:45Z</time>
      </trkpt>
      <trkpt lat="42.38645" lon="0.10891">
        <ele>650</ele>
        <time>2011-05-01T14:33:16Z</time>
      </trkpt>
      <trkpt lat="42.3867" lon="0.10986">
        <ele>642.3</ele>
        <time>2011-05-01T14:34:02Z</time>
      </trkpt>
      <trkpt lat="42.38731" lon="0.11061">
        <ele>641.3</ele>
        <time>2011-05-01T14:34:49Z</time>
      </trkpt>
      <trkpt lat="42.38735" lon="0.11169">
        <ele>638.9</ele>
        <time>2011-05-01T14:35:35Z</time>
      </trkpt>
      <trkpt lat="42.38801" lon="0.11246">
        <ele>635.1</ele>
        <time>2011-05-01T14:36:27Z</time>
      </trkpt>
      <trkpt lat="42.38867" lon="0.11336">
        <ele>632.7</ele>
        <time>2011-05-01T14:37:21Z</time>
      </trkpt>
      <trkpt lat="42.38889" lon="0.11379">
        <ele>633.6</ele>
        <time>2011-05-01T14:37:44Z</time>
      </trkpt>
      <trkpt lat="42.39044" lon="0.11539">
        <ele>628.8</ele>
        <time>2011-05-01T14:39:35Z</time>
      </trkpt>
      <trkpt lat="42.39219" lon="0.11625">
        <ele>633.6</ele>
        <time>2011-05-01T14:41:23Z</time>
      </trkpt>
      <trkpt lat="42.39381" lon="0.11588">
        <ele>648.5</ele>
        <time>2011-04-27T12:59:30Z</time>
      </trkpt>
      <trkpt lat="42.39413" lon="0.11733">
        <ele>648.5</ele>
        <time>2011-04-27T13:00:15Z</time>
      </trkpt>
      <trkpt lat="42.39451" lon="0.11851">
        <ele>655.8</ele>
        <time>2011-04-27T13:00:53Z</time>
      </trkpt>
      <trkpt lat="42.39448" lon="0.11895">
        <ele>659.1</ele>
        <time>2011-04-27T13:01:07Z</time>
      </trkpt>
      <trkpt lat="42.39418" lon="0.12008">
        <ele>665.9</ele>
        <time>2011-04-27T13:01:44Z</time>
      </trkpt>
      <trkpt lat="42.39428" lon="0.12048">
        <ele>675.5</ele>
        <time>2011-04-27T13:02:16Z</time>
      </trkpt>
      <trkpt lat="42.3949" lon="0.12186">
        <ele>696.1</ele>
        <time>2011-04-27T13:03:04Z</time>
      </trkpt>
      <trkpt lat="42.39487" lon="0.12315">
        <ele>714.4</ele>
        <time>2011-04-27T13:03:43Z</time>
      </trkpt>
      <trkpt lat="42.39441" lon="0.12433">
        <ele>736</ele>
        <time>2011-04-27T13:04:24Z</time>
      </trkpt>
      <trkpt lat="42.3945" lon="0.125">
        <ele>748</ele>
        <time>2011-04-27T13:04:45Z</time>
      </trkpt>
      <trkpt lat="42.3945" lon="0.12647">
        <ele>767</ele>
        <time>2008-04-23T11:07:28Z</time>
      </trkpt>
      <trkpt lat="42.39516" lon="0.12622">
        <ele>778.3</ele>
        <time>2008-04-23T11:16:05Z</time>
      </trkpt>
      <trkpt lat="42.39621" lon="0.12605">
        <ele>793.7</ele>
        <time>2008-04-23T11:17:32Z</time>
      </trkpt>
      <trkpt lat="42.39708" lon="0.12572">
        <ele>804.3</ele>
        <time>2008-04-23T11:18:50Z</time>
      </trkpt>
      <trkpt lat="42.3977" lon="0.12559">
        <ele>811.5</ele>
        <time>2008-04-23T11:19:40Z</time>
      </trkpt>
      <trkpt lat="42.39878" lon="0.1252">
        <ele>824</ele>
        <time>2008-04-23T11:21:08Z</time>
      </trkpt>
      <trkpt lat="42.39941" lon="0.12493">
        <ele>826.4</ele>
        <time>2008-04-23T11:21:59Z</time>
      </trkpt>
      <trkpt lat="42.40033" lon="0.12396">
        <ele>820.1</ele>
        <time>2008-04-23T11:23:06Z</time>
      </trkpt>
      <trkpt lat="42.40111" lon="0.12354">
        <ele>822.5</ele>
        <time>2013-01-18T15:25:52Z</time>
      </trkpt>
      <trkpt lat="42.40222" lon="0.12341">
        <ele>842.7</ele>
        <time>2013-01-18T15:27:43Z</time>
      </trkpt>
      <trkpt lat="42.40222" lon="0.12341">
        <ele>842.7</ele>
        <time>2013-01-18T15:25:17Z</time>
      </trkpt>
      <trkpt lat="42.40144" lon="0.12357">
        <ele>832.2</ele>
        <time>2013-01-18T15:26:32Z</time>
      </trkpt>
      <trkpt lat="42.40054" lon="0.12397">
        <ele>816.8</ele>
        <time>2013-01-18T15:20:29Z</time>
      </trkpt>
      <trkpt lat="42.40115" lon="0.12408">
        <ele>804.8</ele>
        <time>2013-01-18T15:22:02Z</time>
      </trkpt>
      <trkpt lat="42.40185" lon="0.12449">
        <ele>796.6</ele>
        <time>2013-01-18T15:23:36Z</time>
      </trkpt>
      <trkpt lat="42.40241" lon="0.1244">
        <ele>799</ele>
        <time>2013-01-18T15:24:36Z</time>
      </trkpt>
      <trkpt lat="42.40288" lon="0.12477">
        <ele>787</ele>
        <time>2013-01-18T15:35:02Z</time>
      </trkpt>
      <trkpt lat="42.40306" lon="0.12505">
        <ele>781.7</ele>
        <time>2013-01-18T15:35:36Z</time>
      </trkpt>
      <trkpt lat="42.40289" lon="0.12608">
        <ele>780.7</ele>
        <time>2013-01-18T15:37:46Z</time>
      </trkpt>
      <trkpt lat="42.40243" lon="0.12748">
        <ele>768.7</ele>
        <time>2013-01-18T15:39:27Z</time>
      </trkpt>
      <trkpt lat="42.40304" lon="0.12823">
        <ele>771.1</ele>
        <time>2013-01-18T15:40:04Z</time>
      </trkpt>
      <trkpt lat="42.4027" lon="0.12975">
        <ele>759.6</ele>
        <time>2013-01-18T15:41:10Z</time>
      </trkpt>
      <trkpt lat="42.40236" lon="0.13043">
        <ele>748.5</ele>
        <time>2013-01-18T15:41:46Z</time>
      </trkpt>
      <trkpt lat="42.4031" lon="0.13063">
        <ele>752.4</ele>
        <time>2013-01-18T15:43:39Z</time>
      </trkpt>
      <trkpt lat="42.40333" lon="0.131">
        <ele>731.2</ele>
        <time>2013-01-18T15:45:37Z</time>
      </trkpt>
      <trkpt lat="42.40414" lon="0.13004">
        <ele>711.5</ele>
        <time>2013-01-18T15:46:34Z</time>
      </trkpt>
      <trkpt lat="42.40492" lon="0.12978">
        <ele>691.8</ele>
        <time>2013-01-18T15:47:29Z</time>
      </trkpt>
      <trkpt lat="42.40537" lon="0.13005">
        <ele>675.5</ele>
        <time>2013-01-18T15:48:11Z</time>
      </trkpt>
      <trkpt lat="42.40555" lon="0.13027">
        <ele>661.5</ele>
        <time>2013-01-18T15:48:44Z</time>
      </trkpt>
      <trkpt lat="42.40598" lon="0.13124">
        <ele>638.9</ele>
        <time>2013-01-18T15:50:00Z</time>
      </trkpt>
      <trkpt lat="42.40638" lon="0.13132">
        <ele>635.6</ele>
        <time>2013-01-18T15:50:27Z</time>
      </trkpt>
      <trkpt lat="42.40614" lon="0.13156">
        <ele>622.1</ele>
        <time>2013-01-18T15:51:24Z</time>
      </trkpt>
      <trkpt lat="42.40574" lon="0.13163">
        <ele>617.3</ele>
        <time>2013-01-18T15:51:52Z</time>
      </trkpt>
      <trkpt lat="42.40638" lon="0.13237">
        <ele>588.5</ele>
        <time>2013-01-18T15:53:10Z</time>
      </trkpt>
      <trkpt lat="42.40678" lon="0.13349">
        <ele>567.3</ele>
        <time>2013-01-18T15:54:29Z</time>
      </trkpt>
      <trkpt lat="42.40713" lon="0.13448">
        <ele>557.2</ele>
        <time>2013-01-18T15:55:41Z</time>
      </trkpt>
      <trkpt lat="42.40787" lon="0.13479">
        <ele>553.4</ele>
        <time>2013-01-18T15:56:32Z</time>
      </trkpt>
      <trkpt lat="42.409" lon="0.13544">
        <ele>547.1</ele>
        <time>2013-01-18T15:58:06Z</time>
      </trkpt>
      <trkpt lat="42.40988" lon="0.136">
        <ele>542.8</ele>
        <time>2013-01-18T15:59:17Z</time>
      </trkpt>
      <trkpt lat="42.41031" lon="0.13614">
        <ele>541.4</ele>
        <time>2013-01-18T15:59:47Z</time>
      </trkpt>
      <trkpt lat="42.41118" lon="0.13603">
        <ele>540.4</ele>
        <time>2013-01-18T16:00:03Z</time>
      </trkpt>
      <trkpt lat="42.4116" lon="0.13647">
        <ele>539.4</ele>
        <time>2013-01-18T16:00:19Z</time>
      </trkpt>
      <trkpt lat="42.41149" lon="0.1383">
        <ele>539.4</ele>
        <time>2013-01-18T16:00:23Z</time>
      </trkpt>
      <trkpt lat="42.41184" lon="0.1393">
        <ele>535</ele>
        <time>2013-01-18T16:00:23Z</time>
      </trkpt>
    </trkseg>
  </trk>
</gpx>